Eurasian Highway — 7JKY — position and weather

sailwx.info

Track history (hours):
 
Tides and Currents Weather Stations Pressure Air Temp Water Temp Dewpoint Dewpoint Depression Visibility Wind Speed Wind Dir Waves Ship Positions

Eurasian Highway

Last reported at 2014-Sep-15 16:33 UTC. Time now 2014-Sep-18 09:43 UTC.
Position S 38°57' E 145°40'.

Length 199 m; draft 8.3 m.

Type: Cargo ship. MMSI: 432839000.

Date/timePositionNaut miles runAvg speedWind from/ knotsBaromVisibWave heightAir tempDewpointWater temp
2014-Sep-15 16:33S 38°57' E 145°40'1717.0
2014-Sep-15 15:33S 39°06' E 145°58'1717.0
2014-Sep-15 14:33S 39°12' E 146°19'1817.9
2014-Sep-15 13:33S 39°06' E 146°41'1717.4
2014-Sep-15 12:33S 39°01' E 147°02'1716.7
2014-Sep-15 11:33S 38°56' E 147°23'1816.1
2014-Sep-15 10:27S 38°50' E 147°44'3516.3
2014-Sep-15 08:18S 38°37' E 148°26'1317.2
2014-Sep-15 07:32S 38°30' E 148°40'1616.9
2014-Sep-15 06:34S 38°22' E 148°58'5317.5
2014-Sep-15 03:32S 37°55' E 149°56'1616.3
2014-Sep-15 02:32S 37°47' E 150°14'2217.1
2014-Sep-15 01:13S 37°25' E 150°23'1116.8
2014-Sep-15 00:34S 37°15' E 150°27'257 6.2
2014-Sep-13 07:26S 33°13' E 152°11'1517.5
2014-Sep-13 06:34S 33°00' E 152°22'1817.8
2014-Sep-13 05:33S 32°45' E 152°32'1717.5
2014-Sep-13 04:34S 32°29' E 152°40'26617.4
2014-Sep-12 13:13S 28°09' E 153°47'1218.4
2014-Sep-12 12:32S 27°56' E 153°47'1818.4
2014-Sep-12 11:33S 27°38' E 153°45'1817.9
2014-Sep-12 10:33S 27°21' E 153°43'1717.5
2014-Sep-12 09:34S 27°03' E 153°40'1615.6
2014-Sep-12 08:34S 26°51' E 153°29'1615.9
2014-Sep-12 07:33S 26°43' E 153°14'9 8.7
2014-Sep-12 06:33S 26°51' E 153°09'1717.1
2014-Sep-12 05:33S 27°06' E 153°19'1313.4
2014-Sep-12 04:33S 27°18' E 153°13'6 5.7
2014-Sep-12 03:32S 27°23' E 153°10'0 0.0
2014-Sep-12 02:32S 27°23' E 153°10'0 0.0
2014-Sep-12 01:32S 27°23' E 153°10'0 0.0
2014-Sep-12 00:29S 27°23' E 153°10'0 0.0
2014-Sep-11 23:32S 27°23' E 153°10'0 0.0
2014-Sep-11 22:32S 27°23' E 153°10'0 0.0
2014-Sep-11 21:32S 27°23' E 153°10'0 0.0
2014-Sep-11 20:32S 27°23' E 153°10'0 0.0
2014-Sep-11 19:32S 27°23' E 153°10'0 0.0
2014-Sep-11 18:32S 27°23' E 153°10'0 0.0
2014-Sep-11 17:32S 27°23' E 153°10'0 0.0
2014-Sep-11 16:32S 27°23' E 153°10'0 0.0
2014-Sep-11 15:32S 27°23' E 153°10'0 0.0
2014-Sep-11 14:32S 27°23' E 153°10'0 0.0
2014-Sep-11 13:32S 27°23' E 153°10'0 0.0
2014-Sep-11 12:32S 27°23' E 153°10'0 0.0
2014-Sep-11 11:33S 27°23' E 153°10'0 0.0
2014-Sep-11 10:32S 27°23' E 153°10'0 0.0
2014-Sep-11 09:32S 27°23' E 153°10'7 6.8
2014-Sep-11 08:34S 27°17' E 153°14'1413.7
2014-Sep-11 07:33S 27°04' E 153°18'1615.8
2014-Sep-11 06:33S 26°51' E 153°09'10 9.9
2014-Sep-11 05:33S 26°41' E 153°13'8 8.1
2014-Sep-11 04:34S 26°34' E 153°15'1716.5
2014-Sep-11 03:34S 26°17' E 153°17'1916.5
2014-Sep-11 02:23S 25°58' E 153°21'  
2014-Sep-06 04:25S 08°58' E 130°38'4815.9
2014-Sep-06 01:22S 08°49' E 129°50'1416.7
2014-Sep-06 00:33S 08°46' E 129°36'1816.7
2014-Sep-05 23:30S 08°43' E 129°19'  
Track history (hours):
 
Tides and Currents Weather Stations Pressure Air Temp Water Temp Dewpoint Dewpoint Depression Visibility Wind Speed Wind Dir Waves Ship Positions

Eurasian Highway

Last reported at 2014-Sep-15 16:33 UTC. Time now 2014-Sep-18 09:43 UTC.
Position S 38°57' E 145°40'.

Length 199 m; draft 8.3 m.

Type: Cargo ship. MMSI: 432839000.

Date/timePositionNaut miles runAvg speedWind from/ knotsBaromVisibWave heightAir tempDewpointWater temp
2014-Sep-15 16:33S 38°57' E 145°40'1717.0
2014-Sep-15 15:33S 39°06' E 145°58'1717.0
2014-Sep-15 14:33S 39°12' E 146°19'1817.9
2014-Sep-15 13:33S 39°06' E 146°41'1717.4
2014-Sep-15 12:33S 39°01' E 147°02'1716.7
2014-Sep-15 11:33S 38°56' E 147°23'1816.1
2014-Sep-15 10:27S 38°50' E 147°44'3516.3
2014-Sep-15 08:18S 38°37' E 148°26'1317.2
2014-Sep-15 07:32S 38°30' E 148°40'1616.9
2014-Sep-15 06:34S 38°22' E 148°58'5317.5
2014-Sep-15 03:32S 37°55' E 149°56'1616.3
2014-Sep-15 02:32S 37°47' E 150°14'2217.1
2014-Sep-15 01:13S 37°25' E 150°23'1116.8
2014-Sep-15 00:34S 37°15' E 150°27'257 6.2
2014-Sep-13 07:26S 33°13' E 152°11'1517.5
2014-Sep-13 06:34S 33°00' E 152°22'1817.8
2014-Sep-13 05:33S 32°45' E 152°32'1717.5
2014-Sep-13 04:34S 32°29' E 152°40'26617.4
2014-Sep-12 13:13S 28°09' E 153°47'1218.4
2014-Sep-12 12:32S 27°56' E 153°47'1818.4
2014-Sep-12 11:33S 27°38' E 153°45'1817.9
2014-Sep-12 10:33S 27°21' E 153°43'1717.5
2014-Sep-12 09:34S 27°03' E 153°40'1615.6
2014-Sep-12 08:34S 26°51' E 153°29'1615.9
2014-Sep-12 07:33S 26°43' E 153°14'9 8.7
2014-Sep-12 06:33S 26°51' E 153°09'1717.1
2014-Sep-12 05:33S 27°06' E 153°19'1313.4
2014-Sep-12 04:33S 27°18' E 153°13'6 5.7
2014-Sep-12 03:32S 27°23' E 153°10'0 0.0
2014-Sep-12 02:32S 27°23' E 153°10'0 0.0
2014-Sep-12 01:32S 27°23' E 153°10'0 0.0
2014-Sep-12 00:29S 27°23' E 153°10'0 0.0
2014-Sep-11 23:32S 27°23' E 153°10'0 0.0
2014-Sep-11 22:32S 27°23' E 153°10'0 0.0
2014-Sep-11 21:32S 27°23' E 153°10'0 0.0
2014-Sep-11 20:32S 27°23' E 153°10'0 0.0
2014-Sep-11 19:32S 27°23' E 153°10'0 0.0
2014-Sep-11 18:32S 27°23' E 153°10'0 0.0
2014-Sep-11 17:32S 27°23' E 153°10'0 0.0
2014-Sep-11 16:32S 27°23' E 153°10'0 0.0
2014-Sep-11 15:32S 27°23' E 153°10'0 0.0
2014-Sep-11 14:32S 27°23' E 153°10'0 0.0
2014-Sep-11 13:32S 27°23' E 153°10'0 0.0
2014-Sep-11 12:32S 27°23' E 153°10'0 0.0
2014-Sep-11 11:33S 27°23' E 153°10'0 0.0
2014-Sep-11 10:32S 27°23' E 153°10'0 0.0
2014-Sep-11 09:32S 27°23' E 153°10'7 6.8
2014-Sep-11 08:34S 27°17' E 153°14'1413.7
2014-Sep-11 07:33S 27°04' E 153°18'1615.8
2014-Sep-11 06:33S 26°51' E 153°09'10 9.9
2014-Sep-11 05:33S 26°41' E 153°13'8 8.1
2014-Sep-11 04:34S 26°34' E 153°15'1716.5
2014-Sep-11 03:34S 26°17' E 153°17'1916.5
2014-Sep-11 02:23S 25°58' E 153°21'  
2014-Sep-06 04:25S 08°58' E 130°38'4815.9
2014-Sep-06 01:22S 08°49' E 129°50'1416.7
2014-Sep-06 00:33S 08°46' E 129°36'1816.7
2014-Sep-05 23:30S 08°43' E 129°19'  

Dump ship's entire track history